createdAt,value
2022-09-06T00:01:56.832Z,20.00
2022-09-06T00:04:28.706Z,20.00
2022-09-06T00:07:01.896Z,20.00
2022-09-06T00:09:34.025Z,19.90
2022-09-06T00:12:06.277Z,19.90
2022-09-06T00:14:38.126Z,19.90
2022-09-06T00:17:09.961Z,19.80
2022-09-06T00:19:41.797Z,19.80
2022-09-06T00:22:14.996Z,19.80
2022-09-06T00:24:46.883Z,19.70
2022-09-06T00:27:18.738Z,19.70
2022-09-06T00:29:50.578Z,19.70
2022-09-06T00:32:22.476Z,19.70
2022-09-06T00:34:54.332Z,19.70
2022-09-06T00:37:27.592Z,19.70
2022-09-06T00:39:59.501Z,19.60
2022-09-06T00:42:31.416Z,19.60
2022-09-06T00:45:03.619Z,19.60
2022-09-06T00:47:37.135Z,19.60
2022-09-06T00:50:11.870Z,19.60
2022-09-06T00:52:47.181Z,19.60
2022-09-06T00:55:20.484Z,19.60
2022-09-06T00:57:52.484Z,19.60
2022-09-06T01:00:24.458Z,19.50
2022-09-06T01:02:56.381Z,19.50
2022-09-06T01:05:43.842Z,19.50
2022-09-06T01:08:30.536Z,19.50
2022-09-06T01:11:19.266Z,19.50
2022-09-06T01:14:00.092Z,19.50
2022-09-06T01:16:43.658Z,19.50
2022-09-06T01:19:42.739Z,19.50
2022-09-06T01:22:31.236Z,19.50
2022-09-06T01:25:25.476Z,19.50
2022-09-06T01:28:39.365Z,19.50
2022-09-06T01:31:23.109Z,19.50
2022-09-06T01:34:14.447Z,19.50
2022-09-06T01:37:08.480Z,19.50
2022-09-06T01:39:42.224Z,19.50
2022-09-06T01:42:18.174Z,19.40
2022-09-06T01:44:55.137Z,19.40
2022-09-06T01:47:38.074Z,19.40
2022-09-06T01:50:31.767Z,19.40
2022-09-06T01:53:14.413Z,19.40
2022-09-06T01:55:56.026Z,19.40
2022-09-06T01:58:40.997Z,19.40
2022-09-06T02:01:21.298Z,19.40
2022-09-06T02:03:59.980Z,19.40
2022-09-06T02:06:36.252Z,19.40
2022-09-06T02:09:12.330Z,19.30
2022-09-06T02:11:48.408Z,19.20
2022-09-06T02:14:26.394Z,19.20
2022-09-06T02:17:00.195Z,19.20
2022-09-06T02:19:36.671Z,19.30
2022-09-06T02:22:12.628Z,19.30
2022-09-06T02:24:47.112Z,19.40
2022-09-06T02:27:19.143Z,19.50
2022-09-06T02:29:51.175Z,19.60
2022-09-06T02:32:24.617Z,19.60
2022-09-06T02:34:58.496Z,19.60
2022-09-06T02:37:30.349Z,19.60
2022-09-06T02:40:02.644Z,19.50
2022-09-06T02:42:34.914Z,19.40
2022-09-06T02:45:07.814Z,19.30
2022-09-06T02:47:39.770Z,19.10
2022-09-06T02:50:13.327Z,19.00
2022-09-06T02:52:45.197Z,18.80
2022-09-06T02:58:16.063Z,18.80
2022-09-06T03:01:02.348Z,18.80
2022-09-06T03:03:39.771Z,18.80
2022-09-06T03:06:23.824Z,18.80
2022-09-06T03:09:04.750Z,18.80
2022-09-06T03:11:40.747Z,18.70
2022-09-06T03:14:25.683Z,18.60
2022-09-06T03:17:04.445Z,18.60
2022-09-06T03:22:45.513Z,18.50
2022-09-06T03:25:47.590Z,18.60
2022-09-06T03:28:31.273Z,18.60
2022-09-06T03:31:37.663Z,18.60
2022-09-06T03:34:15.310Z,18.60
2022-09-06T03:37:07.098Z,18.60
2022-09-06T03:39:43.545Z,18.70
2022-09-06T03:42:17.735Z,18.60
2022-09-06T03:45:10.340Z,18.60
2022-09-06T03:47:47.144Z,18.60
2022-09-06T03:50:34.645Z,18.60
2022-09-06T03:53:26.704Z,18.60
2022-09-06T03:56:10.842Z,18.60
2022-09-06T03:59:03.338Z,18.70
2022-09-06T04:02:03.749Z,18.70
2022-09-06T04:04:53.945Z,18.70
2022-09-06T04:07:50.393Z,18.70
2022-09-06T04:10:46.476Z,18.70
2022-09-06T04:13:34.901Z,18.60
2022-09-06T04:16:07.057Z,18.70
2022-09-06T04:18:47.686Z,18.60
2022-09-06T04:21:27.037Z,18.70
2022-09-06T04:24:03.806Z,18.60
2022-09-06T04:26:43.136Z,18.60
2022-09-06T04:29:27.563Z,18.60
2022-09-06T04:32:11.700Z,18.60
2022-09-06T04:37:41.729Z,18.50
2022-09-06T04:40:27.911Z,18.50
2022-09-06T04:43:05.226Z,18.50
2022-09-06T04:45:59.886Z,18.50
2022-09-06T04:48:37.742Z,18.50
2022-09-06T04:51:25.185Z,18.40
2022-09-06T04:57:22.432Z,18.40
2022-09-06T05:00:02.602Z,18.40
2022-09-06T05:02:43.395Z,18.40
2022-09-06T05:11:41.284Z,18.30
2022-09-06T05:14:36.880Z,18.30
2022-09-06T05:17:34.539Z,18.30
2022-09-06T05:20:29.396Z,18.30
2022-09-06T05:23:13.525Z,18.20
2022-09-06T05:26:06.811Z,18.20
2022-09-06T05:29:09.927Z,18.20
2022-09-06T05:31:45.008Z,18.20
2022-09-06T05:34:41.194Z,18.20
2022-09-06T05:37:59.812Z,18.10
2022-09-06T05:41:04.342Z,18.10
2022-09-06T05:43:39.949Z,18.20
2022-09-06T05:46:33.279Z,18.20
2022-09-06T05:52:35.102Z,18.30
2022-09-06T05:55:48.791Z,18.30
2022-09-06T05:58:40.914Z,18.30
2022-09-06T06:01:27.814Z,18.30
2022-09-06T06:04:09.437Z,18.40
2022-09-06T06:08:04.760Z,18.40
2022-09-06T06:10:15.784Z,18.50
2022-09-06T06:13:16.932Z,18.50
2022-09-06T06:19:26.013Z,18.60
2022-09-06T06:25:15.941Z,18.70
2022-09-06T06:28:18.401Z,18.80
2022-09-06T06:31:30.638Z,18.80
2022-09-06T06:34:25.307Z,18.90
2022-09-06T06:37:22.062Z,18.90
2022-09-06T06:40:30.547Z,19.00
2022-09-06T06:46:22.748Z,19.10
2022-09-06T06:51:59.982Z,19.20
2022-09-06T06:54:49.252Z,19.30
2022-09-06T07:08:40.028Z,19.60
2022-09-06T07:11:13.675Z,19.60
2022-09-06T07:13:45.522Z,19.60
2022-09-06T07:16:31.454Z,19.60
2022-09-06T07:26:33.407Z,19.80
2022-09-06T07:29:12.159Z,19.80
2022-09-06T07:32:27.227Z,19.80
2022-09-06T07:35:37.475Z,19.90
2022-09-06T07:38:31.200Z,20.00
2022-09-06T07:41:35.490Z,20.00
2022-09-06T07:44:55.409Z,20.10
2022-09-06T07:53:34.944Z,20.20
2022-09-06T07:57:12.580Z,20.30
2022-09-06T08:00:55.894Z,20.40
2022-09-06T08:03:27.523Z,20.50
2022-09-06T08:06:20.980Z,20.60
2022-09-06T08:09:07.029Z,20.70
2022-09-06T08:12:22.720Z,20.80
2022-09-06T08:22:56.183Z,21.00
2022-09-06T08:25:32.379Z,21.00
2022-09-06T08:28:04.218Z,21.10
2022-09-06T08:30:46.352Z,21.20
2022-09-06T08:33:40.087Z,21.20
2022-09-06T08:36:45.467Z,21.30
2022-09-06T08:39:26.178Z,21.30
2022-09-06T08:42:13.394Z,21.40
2022-09-06T08:45:07.541Z,21.50
2022-09-06T08:47:53.472Z,21.50
2022-09-06T08:50:35.294Z,21.50
2022-09-06T08:53:40.551Z,21.70
2022-09-06T08:56:33.248Z,21.70
2022-09-06T08:59:11.637Z,21.80
2022-09-06T09:01:56.896Z,21.90
2022-09-06T09:04:30.544Z,21.90
2022-09-06T09:07:13.773Z,22.10
2022-09-06T09:09:46.520Z,22.20
2022-09-06T09:12:22.193Z,22.30
2022-09-06T09:15:02.003Z,22.50
2022-09-06T09:17:36.805Z,22.50
2022-09-06T09:20:09.612Z,22.60
2022-09-06T09:22:43.113Z,22.70
2022-09-06T09:25:20.158Z,22.90
2022-09-06T09:27:59.331Z,22.90
2022-09-06T09:30:49.611Z,23.00
2022-09-06T09:33:24.980Z,23.10
2022-09-06T09:35:58.934Z,23.20
2022-09-06T09:38:33.367Z,23.20
2022-09-06T09:41:07.666Z,23.30
2022-09-06T09:43:42.403Z,23.40
2022-09-06T09:46:27.716Z,23.50
2022-09-06T09:49:06.841Z,23.60
2022-09-06T09:51:40.717Z,23.70
2022-09-06T09:54:14.859Z,23.80
2022-09-06T09:56:49.375Z,23.90
2022-09-06T09:59:25.712Z,23.90
2022-09-06T10:02:01.411Z,24.00
2022-09-06T10:04:44.175Z,24.10
2022-09-06T10:07:18.306Z,24.10
2022-09-06T10:09:58.418Z,24.20
2022-09-06T10:12:32.143Z,24.30
2022-09-06T10:15:06.980Z,24.40
2022-09-06T10:17:50.367Z,24.50
2022-09-06T10:20:26.129Z,24.70
2022-09-06T10:23:05.281Z,24.80
2022-09-06T10:25:40.321Z,24.90
2022-09-06T10:28:29.897Z,25.00
2022-09-06T10:31:34.463Z,25.10
2022-09-06T10:34:34.129Z,25.20
2022-09-06T10:37:20.553Z,25.30
2022-09-06T10:39:58.444Z,25.40
2022-09-06T10:42:38.533Z,25.50
2022-09-06T10:45:21.099Z,25.60
2022-09-06T10:47:58.777Z,25.60
2022-09-06T10:50:42.962Z,25.70
2022-09-06T10:53:26.768Z,25.70
2022-09-06T10:56:07.748Z,25.90
2022-09-06T11:01:45.199Z,25.90
2022-09-06T11:04:24.352Z,26.00
2022-09-06T11:07:05.223Z,26.00
2022-09-06T11:09:43.916Z,26.00
2022-09-06T11:12:23.565Z,26.10
2022-09-06T11:14:55.903Z,26.10
2022-09-06T11:17:34.039Z,26.10
2022-09-06T11:20:09.371Z,26.20
2022-09-06T11:23:20.697Z,26.20
2022-09-06T11:26:24.688Z,26.20
2022-09-06T11:28:57.574Z,26.20
2022-09-06T11:34:27.665Z,26.30
2022-09-06T11:37:01.897Z,26.40
2022-09-06T11:43:01.613Z,26.60
2022-09-06T11:45:44.486Z,26.70
2022-09-06T11:48:49.043Z,27.00
2022-09-06T11:51:36.586Z,27.50
2022-09-06T11:54:26.263Z,28.10
2022-09-06T11:57:09.115Z,28.60
2022-09-06T11:59:52.783Z,29.10
2022-09-06T12:02:35.326Z,29.60
2022-09-06T12:05:17.915Z,30.10
2022-09-06T12:08:13.680Z,30.40
2022-09-06T12:10:52.899Z,30.50
2022-09-06T12:13:49.991Z,30.60
2022-09-06T12:16:23.493Z,30.90
2022-09-06T12:19:00.831Z,31.30
2022-09-06T12:24:53.986Z,32.20
2022-09-06T12:27:29.636Z,32.70
2022-09-06T12:30:07.394Z,33.30
2022-09-06T12:32:42.883Z,33.60
2022-09-06T12:38:16.364Z,34.20
2022-09-06T12:40:53.311Z,34.10
2022-09-06T12:43:26.535Z,34.20
2022-09-06T12:46:07.996Z,34.30
2022-09-06T12:48:41.788Z,34.40
2022-09-06T12:51:20.741Z,34.60
2022-09-06T12:53:54.456Z,34.60
2022-09-06T12:56:28.787Z,34.20
2022-09-06T12:59:17.188Z,34.10
2022-09-06T13:02:00.826Z,33.80
2022-09-06T13:04:37.932Z,33.50
2022-09-06T13:07:14.337Z,33.30
2022-09-06T13:09:49.120Z,33.20
2022-09-06T13:12:26.319Z,33.40
2022-09-06T13:15:04.197Z,33.80
2022-09-06T13:17:38.432Z,34.40
2022-09-06T13:20:12.836Z,34.90
2022-09-06T13:22:47.416Z,35.30
2022-09-06T13:25:27.726Z,35.70
2022-09-06T13:28:01.795Z,35.90
2022-09-06T13:30:39.387Z,36.30
2022-09-06T13:33:24.553Z,36.60
2022-09-06T13:36:08.212Z,37.10
2022-09-06T13:38:41.758Z,37.60
2022-09-06T13:41:54.720Z,38.10
2022-09-06T13:44:31.576Z,38.50
2022-09-06T13:47:03.982Z,38.70
2022-09-06T13:49:37.094Z,39.00
2022-09-06T13:52:09.371Z,39.10
2022-09-06T13:54:41.843Z,39.30
2022-09-06T13:57:13.882Z,39.40
2022-09-06T13:59:46.388Z,39.30
2022-09-06T14:02:21.131Z,39.30
2022-09-06T14:04:54.539Z,39.10
2022-09-06T14:07:27.241Z,39.10
2022-09-06T14:10:01.099Z,39.10
2022-09-06T14:12:34.742Z,39.30
2022-09-06T14:15:07.353Z,39.40
2022-09-06T14:17:40.131Z,39.40
2022-09-06T14:20:13.958Z,39.50
2022-09-06T14:22:47.813Z,39.40
2022-09-06T14:25:20.110Z,39.30
2022-09-06T14:27:52.884Z,39.20
2022-09-06T14:30:27.867Z,39.20
2022-09-06T14:33:00.179Z,39.30
2022-09-06T14:35:34.058Z,39.50
2022-09-06T14:38:17.641Z,39.60
2022-09-06T14:40:49.452Z,39.80
2022-09-06T14:46:32.869Z,39.80
2022-09-06T14:49:27.339Z,39.80
2022-09-06T14:55:49.433Z,39.70
2022-09-06T14:58:05.334Z,39.60
2022-09-06T15:00:37.215Z,39.40
2022-09-06T15:03:08.979Z,39.60
2022-09-06T15:05:40.766Z,39.10
2022-09-06T15:08:14.509Z,38.90
2022-09-06T15:10:53.696Z,38.40
2022-09-06T15:13:26.934Z,37.90
2022-09-06T15:15:58.817Z,37.40
2022-09-06T15:18:30.931Z,36.80
2022-09-06T15:21:10.193Z,36.20
2022-09-06T15:23:43.919Z,35.60
2022-09-06T15:26:15.817Z,35.00
2022-09-06T15:28:47.630Z,34.50
2022-09-06T15:31:20.052Z,34.10
2022-09-06T15:33:52.820Z,33.70
2022-09-06T15:36:24.488Z,33.40
2022-09-06T15:39:03.911Z,33.10
2022-09-06T15:41:37.227Z,32.80
2022-09-06T15:44:11.347Z,32.50
2022-09-06T15:46:49.144Z,32.30
2022-09-06T15:49:27.545Z,32.10
2022-09-06T15:52:02.060Z,31.90
2022-09-06T15:54:54.201Z,31.70
2022-09-06T15:57:26.066Z,31.60
2022-09-06T15:59:57.857Z,31.50
2022-09-06T16:02:30.214Z,31.50
2022-09-06T16:05:02.057Z,31.40
2022-09-06T16:07:33.834Z,31.40
2022-09-06T16:10:07.412Z,31.30
2022-09-06T16:12:39.441Z,31.30
2022-09-06T16:15:11.491Z,31.20
2022-09-06T16:17:43.483Z,31.20
2022-09-06T16:20:15.910Z,31.10
2022-09-06T16:22:48.932Z,30.90
2022-09-06T16:25:22.419Z,30.80
2022-09-06T16:27:54.253Z,30.60
2022-09-06T16:30:26.122Z,30.50
2022-09-06T16:32:57.909Z,30.30
2022-09-06T16:35:29.835Z,30.20
2022-09-06T16:38:02.358Z,30.20
2022-09-06T16:40:36.581Z,30.10
2022-09-06T16:43:08.664Z,30.00
2022-09-06T16:45:40.558Z,30.00
2022-09-06T16:48:12.370Z,29.90
2022-09-06T16:50:44.143Z,29.90
2022-09-06T16:53:19.141Z,29.80
2022-09-06T16:55:54.623Z,29.70
2022-09-06T16:58:26.480Z,29.80
2022-09-06T17:00:58.523Z,29.80
2022-09-06T17:03:30.737Z,29.80
2022-09-06T17:06:03.123Z,29.80
2022-09-06T17:08:36.495Z,29.80
2022-09-06T17:11:11.588Z,29.80
2022-09-06T17:13:45.074Z,29.80
2022-09-06T17:16:35.832Z,29.80
2022-09-06T17:19:09.777Z,29.80
2022-09-06T17:21:41.821Z,29.80
2022-09-06T17:24:13.765Z,29.70
2022-09-06T17:26:47.151Z,29.70
2022-09-06T17:29:19.510Z,29.60
2022-09-06T17:31:51.882Z,29.40
2022-09-06T17:34:23.725Z,29.30
2022-09-06T17:36:55.497Z,29.10
2022-09-06T17:39:27.385Z,29.00
2022-09-06T17:42:02.139Z,29.00
2022-09-06T17:44:34.354Z,28.90
2022-09-06T17:47:14.454Z,28.80
2022-09-06T17:49:47.232Z,28.70
2022-09-06T17:52:19.024Z,28.60
2022-09-06T17:54:50.815Z,28.50
2022-09-06T17:57:23.906Z,28.50
2022-09-06T18:00:00.264Z,28.30
2022-09-06T18:02:32.048Z,28.20
2022-09-06T18:05:04.124Z,28.10
2022-09-06T18:07:36.024Z,28.00
2022-09-06T18:10:09.064Z,27.90
2022-09-06T18:12:42.323Z,27.80
2022-09-06T18:15:14.164Z,27.70
2022-09-06T18:17:45.909Z,27.60
2022-09-06T18:20:17.949Z,27.40
2022-09-06T18:22:49.723Z,27.30
2022-09-06T18:25:21.518Z,27.20
2022-09-06T18:27:54.627Z,27.10
2022-09-06T18:30:26.285Z,27.00
2022-09-06T18:32:58.080Z,26.90
2022-09-06T18:35:29.916Z,26.80
2022-09-06T18:38:01.789Z,26.60
2022-09-06T18:40:33.568Z,26.50
2022-09-06T18:43:06.735Z,26.30
2022-09-06T18:45:38.444Z,26.20
2022-09-06T18:48:11.024Z,26.10
2022-09-06T18:50:43.045Z,26.00
2022-09-06T18:53:18.157Z,25.90
2022-09-06T18:55:51.635Z,25.80
2022-09-06T18:58:25.075Z,25.70
2022-09-06T19:01:02.136Z,25.60
2022-09-06T19:03:34.418Z,25.60
2022-09-06T19:06:08.535Z,25.50
2022-09-06T19:08:41.455Z,25.50
2022-09-06T19:11:19.028Z,25.40
2022-09-06T19:13:53.920Z,25.30
2022-09-06T19:16:27.242Z,25.20
2022-09-06T19:19:02.864Z,25.10
2022-09-06T19:21:39.181Z,25.00
2022-09-06T19:24:15.535Z,25.00
2022-09-06T19:26:47.313Z,24.90
2022-09-06T19:29:20.656Z,24.80
2022-09-06T19:31:52.912Z,24.70
2022-09-06T19:34:25.509Z,24.60
2022-09-06T19:36:57.372Z,24.50
2022-09-06T19:39:36.201Z,24.40
2022-09-06T19:42:09.114Z,24.30
2022-09-06T19:44:42.361Z,24.30
2022-09-06T19:47:14.095Z,24.20
2022-09-06T19:49:46.007Z,24.10
2022-09-06T19:52:18.372Z,24.10
2022-09-06T19:54:50.228Z,24.10
2022-09-06T19:57:22.026Z,24.00
2022-09-06T19:59:55.217Z,23.90
2022-09-06T20:02:27.096Z,23.90
2022-09-06T20:04:58.921Z,23.80
2022-09-06T20:07:30.679Z,23.80
2022-09-06T20:10:02.459Z,23.70
2022-09-06T20:12:34.262Z,23.70
2022-09-06T20:15:08.785Z,23.60
2022-09-06T20:17:40.540Z,23.50
2022-09-06T20:20:15.389Z,23.50
2022-09-06T20:22:47.524Z,23.40
2022-09-06T20:25:19.342Z,23.40
2022-09-06T20:27:51.100Z,23.40
2022-09-06T20:30:24.460Z,23.40
2022-09-06T20:32:56.274Z,23.30
2022-09-06T20:35:28.701Z,23.20
2022-09-06T20:38:00.451Z,23.20
2022-09-06T20:40:32.251Z,23.10
2022-09-06T20:43:04.089Z,23.00
2022-09-06T20:45:37.207Z,23.00
2022-09-06T20:48:08.990Z,22.90
2022-09-06T20:50:41.329Z,22.90
2022-09-06T20:53:13.114Z,22.80
2022-09-06T20:55:44.924Z,22.80
2022-09-06T20:58:16.717Z,22.70
2022-09-06T21:00:50.000Z,22.70
2022-09-06T21:03:21.848Z,22.60
2022-09-06T21:05:54.101Z,22.60
2022-09-06T21:08:26.416Z,22.50
2022-09-06T21:10:59.311Z,22.50
2022-09-06T21:13:32.651Z,22.50
2022-09-06T21:16:06.105Z,22.50
2022-09-06T21:18:37.964Z,22.40
2022-09-06T21:21:10.022Z,22.40
2022-09-06T21:23:41.772Z,22.40
2022-09-06T21:26:17.290Z,22.30
2022-09-06T21:28:49.899Z,22.30
2022-09-06T21:31:24.724Z,22.30
2022-09-06T21:33:58.046Z,22.20
2022-09-06T21:36:31.074Z,22.20
2022-09-06T21:39:05.975Z,22.20
2022-09-06T21:41:39.220Z,22.10
2022-09-06T21:44:12.090Z,22.10
2022-09-06T21:46:45.281Z,22.00
2022-09-06T21:49:17.184Z,21.90
2022-09-06T21:51:48.930Z,21.90
2022-09-06T21:54:20.910Z,21.90
2022-09-06T21:56:52.687Z,21.90
2022-09-06T21:59:24.494Z,21.90
2022-09-06T22:01:58.757Z,21.90
2022-09-06T22:04:31.084Z,21.80
2022-09-06T22:07:03.076Z,21.70
2022-09-06T22:09:34.937Z,21.60
2022-09-06T22:12:07.015Z,21.60
2022-09-06T22:14:39.015Z,21.50
2022-09-06T22:17:12.128Z,21.50
2022-09-06T22:19:43.928Z,21.50
2022-09-06T22:22:15.737Z,21.60
2022-09-06T22:24:47.558Z,21.50
2022-09-06T22:27:19.441Z,21.50
2022-09-06T22:29:51.268Z,21.50
2022-09-06T22:32:24.453Z,21.50
2022-09-06T22:34:56.797Z,21.50
2022-09-06T22:37:28.553Z,21.50
2022-09-06T22:40:00.532Z,21.50
2022-09-06T22:42:32.822Z,21.40
2022-09-06T22:45:05.560Z,21.40
2022-09-06T22:47:38.670Z,21.50
2022-09-06T22:50:10.547Z,21.40
2022-09-06T22:52:42.317Z,21.40
2022-09-06T22:55:14.315Z,21.40
2022-09-06T22:57:46.070Z,21.30
2022-09-06T23:00:18.496Z,21.40
2022-09-06T23:02:51.633Z,21.30
2022-09-06T23:05:23.975Z,21.30
2022-09-06T23:07:57.583Z,21.20
2022-09-06T23:10:30.503Z,21.20
2022-09-06T23:13:02.566Z,21.20
2022-09-06T23:15:34.998Z,21.10
2022-09-06T23:18:08.408Z,21.10
2022-09-06T23:20:40.406Z,21.10
2022-09-06T23:23:12.226Z,21.10
2022-09-06T23:25:44.061Z,21.10
2022-09-06T23:28:15.807Z,21.10
2022-09-06T23:30:47.648Z,21.20
2022-09-06T23:33:20.750Z,21.20
2022-09-06T23:35:54.277Z,21.20
2022-09-06T23:38:26.215Z,21.20
2022-09-06T23:40:58.009Z,21.30
2022-09-06T23:43:30.111Z,21.30
2022-09-06T23:46:01.933Z,21.30
2022-09-06T23:48:35.855Z,21.30
2022-09-06T23:51:08.434Z,21.40
2022-09-06T23:53:40.613Z,21.40
2022-09-06T23:56:12.446Z,21.40
2022-09-06T23:58:44.243Z,21.40
